Terminal Aerodrome Forecast
Issued by NWS Omaha/Valley, NE

Home | Current Version | Previous Version | Text Only | Print | Product List | Glossary On
Versions: 1 2 3 4 5 6 7 8 9 10 11 12 13 14 15 16 17 18 19 20 21 22 23 24 25 26 27 28 29 30 31 32 33 34 35 36 37 38 39 40 41 42 43 44 45 46 47 48 49 50
966
FTUS43 KOAX 211737 AAB
TAFOMA
TAF AMD
KOMA 211737Z 2118/2218 23005KT P6SM SCT250
     FM212000 33003KT P6SM FEW200
     FM220600 34004KT 5SM BR SCT200
     FM221200 34010KT P6SM SCT008 BKN015
     FM221500 33012KT P6SM OVC008=

USA.gov is the U.S. government's official web portal to all federal, state and local government web resources and services.